sensor_id;sensor_type;location;lat;lon;timestamp;P1;durP1;ratioP1;P2;durP2;ratioP2
15110;SDS011;7656;51.954;7.998;2022-07-25T00:01:20;8.32;;;6.10;;
15110;SDS011;7656;51.954;7.998;2022-07-25T00:05:22;8.40;;;6.03;;
15110;SDS011;7656;51.954;7.998;2022-07-25T00:09:23;8.70;;;6.95;;
15110;SDS011;7656;51.954;7.998;2022-07-25T00:13:24;6.50;;;5.80;;
15110;SDS011;7656;51.954;7.998;2022-07-25T00:17:24;6.70;;;6.10;;
15110;SDS011;7656;51.954;7.998;2022-07-25T00:21:25;6.70;;;5.93;;
15110;SDS011;7656;51.954;7.998;2022-07-25T00:25:26;7.30;;;6.47;;
15110;SDS011;7656;51.954;7.998;2022-07-25T00:29:27;8.13;;;7.07;;
15110;SDS011;7656;51.954;7.998;2022-07-25T00:33:28;7.40;;;6.70;;
15110;SDS011;7656;51.954;7.998;2022-07-25T00:37:29;7.72;;;6.15;;
15110;SDS011;7656;51.954;7.998;2022-07-25T00:41:30;6.53;;;5.87;;
15110;SDS011;7656;51.954;7.998;2022-07-25T00:45:31;8.63;;;6.55;;
15110;SDS011;7656;51.954;7.998;2022-07-25T00:49:32;7.37;;;6.50;;
15110;SDS011;7656;51.954;7.998;2022-07-25T00:53:34;10.77;;;7.10;;
15110;SDS011;7656;51.954;7.998;2022-07-25T00:57:36;10.00;;;6.90;;
15110;SDS011;7656;51.954;7.998;2022-07-25T01:01:37;7.80;;;6.37;;
15110;SDS011;7656;51.954;7.998;2022-07-25T01:05:38;7.50;;;6.80;;
15110;SDS011;7656;51.954;7.998;2022-07-25T01:09:39;7.37;;;6.67;;
15110;SDS011;7656;51.954;7.998;2022-07-25T01:13:40;8.10;;;6.33;;
15110;SDS011;7656;51.954;7.998;2022-07-25T01:17:41;9.20;;;6.87;;
15110;SDS011;7656;51.954;7.998;2022-07-25T01:21:43;8.03;;;6.87;;
15110;SDS011;7656;51.954;7.998;2022-07-25T01:25:44;7.93;;;7.07;;
15110;SDS011;7656;51.954;7.998;2022-07-25T01:29:45;7.57;;;6.63;;
15110;SDS011;7656;51.954;7.998;2022-07-25T01:33:46;7.10;;;6.40;;
15110;SDS011;7656;51.954;7.998;2022-07-25T01:37:47;7.23;;;6.50;;
15110;SDS011;7656;51.954;7.998;2022-07-25T01:41:48;7.43;;;6.67;;
15110;SDS011;7656;51.954;7.998;2022-07-25T01:45:48;11.20;;;7.00;;
15110;SDS011;7656;51.954;7.998;2022-07-25T01:49:49;7.87;;;6.83;;
15110;SDS011;7656;51.954;7.998;2022-07-25T01:53:50;6.43;;;5.83;;
15110;SDS011;7656;51.954;7.998;2022-07-25T01:57:51;8.93;;;7.10;;
15110;SDS011;7656;51.954;7.998;2022-07-25T02:01:52;7.30;;;6.60;;
15110;SDS011;7656;51.954;7.998;2022-07-25T02:05:53;7.70;;;6.90;;
15110;SDS011;7656;51.954;7.998;2022-07-25T02:09:55;8.90;;;7.23;;
15110;SDS011;7656;51.954;7.998;2022-07-25T02:13:59;8.43;;;6.67;;
15110;SDS011;7656;51.954;7.998;2022-07-25T02:18:05;7.33;;;6.57;;
15110;SDS011;7656;51.954;7.998;2022-07-25T02:22:06;8.30;;;7.40;;
15110;SDS011;7656;51.954;7.998;2022-07-25T02:26:07;6.83;;;6.13;;
15110;SDS011;7656;51.954;7.998;2022-07-25T02:30:08;7.70;;;6.93;;
15110;SDS011;7656;51.954;7.998;2022-07-25T02:34:10;9.27;;;7.47;;
15110;SDS011;7656;51.954;7.998;2022-07-25T02:38:11;8.17;;;6.83;;
15110;SDS011;7656;51.954;7.998;2022-07-25T02:42:18;7.57;;;6.87;;
15110;SDS011;7656;51.954;7.998;2022-07-25T02:46:19;8.33;;;7.10;;
15110;SDS011;7656;51.954;7.998;2022-07-25T02:50:20;8.27;;;7.13;;
15110;SDS011;7656;51.954;7.998;2022-07-25T02:54:21;8.50;;;7.60;;
15110;SDS011;7656;51.954;7.998;2022-07-25T02:58:22;8.83;;;6.97;;
15110;SDS011;7656;51.954;7.998;2022-07-25T03:02:23;8.50;;;6.70;;
15110;SDS011;7656;51.954;7.998;2022-07-25T03:06:24;7.20;;;6.50;;
15110;SDS011;7656;51.954;7.998;2022-07-25T03:10:25;9.30;;;7.50;;
15110;SDS011;7656;51.954;7.998;2022-07-25T03:14:27;10.07;;;7.33;;
15110;SDS011;7656;51.954;7.998;2022-07-25T03:18:28;8.30;;;7.10;;
15110;SDS011;7656;51.954;7.998;2022-07-25T03:22:29;12.60;;;7.03;;
15110;SDS011;7656;51.954;7.998;2022-07-25T03:26:30;7.73;;;7.00;;
15110;SDS011;7656;51.954;7.998;2022-07-25T03:30:31;8.10;;;7.20;;
15110;SDS011;7656;51.954;7.998;2022-07-25T03:34:32;8.10;;;7.00;;
15110;SDS011;7656;51.954;7.998;2022-07-25T03:38:33;9.70;;;7.30;;
15110;SDS011;7656;51.954;7.998;2022-07-25T03:42:34;8.70;;;7.00;;
15110;SDS011;7656;51.954;7.998;2022-07-25T03:46:35;7.47;;;6.77;;
15110;SDS011;7656;51.954;7.998;2022-07-25T03:50:36;9.00;;;7.67;;
15110;SDS011;7656;51.954;7.998;2022-07-25T03:54:37;8.13;;;7.10;;
15110;SDS011;7656;51.954;7.998;2022-07-25T03:58:38;8.37;;;7.03;;
15110;SDS011;7656;51.954;7.998;2022-07-25T04:02:39;8.17;;;7.03;;
15110;SDS011;7656;51.954;7.998;2022-07-25T04:06:40;9.53;;;7.80;;
15110;SDS011;7656;51.954;7.998;2022-07-25T04:10:41;8.17;;;6.90;;
15110;SDS011;7656;51.954;7.998;2022-07-25T04:14:42;9.30;;;7.77;;
15110;SDS011;7656;51.954;7.998;2022-07-25T04:18:43;8.03;;;7.00;;
15110;SDS011;7656;51.954;7.998;2022-07-25T04:22:45;9.33;;;7.30;;
15110;SDS011;7656;51.954;7.998;2022-07-25T04:26:46;8.30;;;7.07;;
15110;SDS011;7656;51.954;7.998;2022-07-25T04:30:47;11.10;;;7.07;;
15110;SDS011;7656;51.954;7.998;2022-07-25T04:34:47;7.10;;;6.40;;
15110;SDS011;7656;51.954;7.998;2022-07-25T04:38:48;8.27;;;7.40;;
15110;SDS011;7656;51.954;7.998;2022-07-25T04:42:49;8.37;;;7.57;;
15110;SDS011;7656;51.954;7.998;2022-07-25T04:46:50;7.63;;;6.77;;
15110;SDS011;7656;51.954;7.998;2022-07-25T04:50:51;7.28;;;6.57;;
15110;SDS011;7656;51.954;7.998;2022-07-25T04:54:52;8.20;;;7.40;;
15110;SDS011;7656;51.954;7.998;2022-07-25T04:58:53;8.03;;;7.23;;
15110;SDS011;7656;51.954;7.998;2022-07-25T05:02:54;8.77;;;7.10;;
15110;SDS011;7656;51.954;7.998;2022-07-25T05:06:54;8.33;;;7.03;;
15110;SDS011;7656;51.954;7.998;2022-07-25T05:10:55;7.88;;;6.43;;
15110;SDS011;7656;51.954;7.998;2022-07-25T05:14:56;7.57;;;6.85;;
15110;SDS011;7656;51.954;7.998;2022-07-25T05:18:57;8.35;;;7.45;;
15110;SDS011;7656;51.954;7.998;2022-07-25T05:22:58;9.05;;;6.00;;
15110;SDS011;7656;51.954;7.998;2022-07-25T05:26:59;8.35;;;7.15;;
15110;SDS011;7656;51.954;7.998;2022-07-25T05:31:01;7.63;;;6.50;;
15110;SDS011;7656;51.954;7.998;2022-07-25T05:35:02;22.02;;;16.70;;
15110;SDS011;7656;51.954;7.998;2022-07-25T05:39:05;16.38;;;12.70;;
15110;SDS011;7656;51.954;7.998;2022-07-25T05:43:05;28.55;;;18.58;;
15110;SDS011;7656;51.954;7.998;2022-07-25T05:47:10;13.02;;;10.10;;
15110;SDS011;7656;51.954;7.998;2022-07-25T05:51:11;8.85;;;7.53;;
15110;SDS011;7656;51.954;7.998;2022-07-25T05:55:12;7.30;;;6.45;;
15110;SDS011;7656;51.954;7.998;2022-07-25T05:59:13;7.40;;;6.15;;
15110;SDS011;7656;51.954;7.998;2022-07-25T06:03:13;7.25;;;6.55;;
15110;SDS011;7656;51.954;7.998;2022-07-25T06:07:14;7.50;;;6.80;;
15110;SDS011;7656;51.954;7.998;2022-07-25T06:11:15;8.98;;;6.80;;
15110;SDS011;7656;51.954;7.998;2022-07-25T06:15:16;7.88;;;7.07;;
15110;SDS011;7656;51.954;7.998;2022-07-25T06:19:17;7.63;;;6.85;;
15110;SDS011;7656;51.954;7.998;2022-07-25T06:23:18;9.93;;;7.85;;
15110;SDS011;7656;51.954;7.998;2022-07-25T06:27:20;6.95;;;6.25;;
15110;SDS011;7656;51.954;7.998;2022-07-25T06:31:21;7.30;;;6.60;;
15110;SDS011;7656;51.954;7.998;2022-07-25T06:35:22;26.63;;;20.10;;
15110;SDS011;7656;51.954;7.998;2022-07-25T06:39:23;7.72;;;6.47;;
15110;SDS011;7656;51.954;7.998;2022-07-25T06:43:25;8.55;;;6.70;;
15110;SDS011;7656;51.954;7.998;2022-07-25T06:47:26;7.97;;;7.15;;
15110;SDS011;7656;51.954;7.998;2022-07-25T06:51:27;7.10;;;6.40;;
15110;SDS011;7656;51.954;7.998;2022-07-25T06:55:28;42.70;;;30.50;;
15110;SDS011;7656;51.954;7.998;2022-07-25T06:59:29;10.48;;;9.32;;
15110;SDS011;7656;51.954;7.998;2022-07-25T07:03:30;6.55;;;5.95;;
15110;SDS011;7656;51.954;7.998;2022-07-25T07:07:37;6.55;;;5.95;;
15110;SDS011;7656;51.954;7.998;2022-07-25T07:11:38;6.68;;;6.05;;
15110;SDS011;7656;51.954;7.998;2022-07-25T07:15:43;5.75;;;5.07;;
15110;SDS011;7656;51.954;7.998;2022-07-25T07:19:46;5.93;;;5.30;;
15110;SDS011;7656;51.954;7.998;2022-07-25T07:23:47;5.38;;;4.95;;
15110;SDS011;7656;51.954;7.998;2022-07-25T07:27:49;5.20;;;4.75;;
15110;SDS011;7656;51.954;7.998;2022-07-25T07:31:50;5.65;;;4.35;;
15110;SDS011;7656;51.954;7.998;2022-07-25T07:35:52;5.90;;;4.95;;
15110;SDS011;7656;51.954;7.998;2022-07-25T07:39:56;6.00;;;5.13;;
15110;SDS011;7656;51.954;7.998;2022-07-25T07:43:57;5.55;;;5.05;;
15110;SDS011;7656;51.954;7.998;2022-07-25T07:47:58;5.30;;;4.90;;
15110;SDS011;7656;51.954;7.998;2022-07-25T07:52:00;6.55;;;5.85;;
15110;SDS011;7656;51.954;7.998;2022-07-25T07:56:01;5.80;;;5.40;;
15110;SDS011;7656;51.954;7.998;2022-07-25T08:00:03;5.32;;;4.93;;
15110;SDS011;7656;51.954;7.998;2022-07-25T08:04:12;5.55;;;5.05;;
15110;SDS011;7656;51.954;7.998;2022-07-25T08:08:13;5.88;;;5.38;;
15110;SDS011;7656;51.954;7.998;2022-07-25T08:12:14;5.45;;;4.97;;
15110;SDS011;7656;51.954;7.998;2022-07-25T08:16:15;5.50;;;5.10;;
15110;SDS011;7656;51.954;7.998;2022-07-25T08:20:17;7.97;;;5.10;;
15110;SDS011;7656;51.954;7.998;2022-07-25T08:24:19;6.90;;;5.00;;
15110;SDS011;7656;51.954;7.998;2022-07-25T08:28:20;5.50;;;5.05;;
15110;SDS011;7656;51.954;7.998;2022-07-25T08:32:21;5.72;;;5.15;;
15110;SDS011;7656;51.954;7.998;2022-07-25T08:36:21;5.03;;;4.63;;
15110;SDS011;7656;51.954;7.998;2022-07-25T08:40:23;6.03;;;4.53;;
15110;SDS011;7656;51.954;7.998;2022-07-25T08:44:26;4.80;;;4.40;;
15110;SDS011;7656;51.954;7.998;2022-07-25T08:48:32;5.38;;;4.97;;
15110;SDS011;7656;51.954;7.998;2022-07-25T08:52:34;4.85;;;4.45;;
15110;SDS011;7656;51.954;7.998;2022-07-25T08:56:36;4.85;;;4.45;;
15110;SDS011;7656;51.954;7.998;2022-07-25T09:00:37;6.05;;;4.90;;
15110;SDS011;7656;51.954;7.998;2022-07-25T09:04:38;7.50;;;5.93;;
15110;SDS011;7656;51.954;7.998;2022-07-25T09:08:49;5.25;;;4.72;;
15110;SDS011;7656;51.954;7.998;2022-07-25T09:13:13;5.03;;;4.53;;
15110;SDS011;7656;51.954;7.998;2022-07-25T09:17:15;5.13;;;4.72;;
15110;SDS011;7656;51.954;7.998;2022-07-25T09:21:16;6.30;;;5.00;;
15110;SDS011;7656;51.954;7.998;2022-07-25T09:29:28;6.18;;;4.68;;
15110;SDS011;7656;51.954;7.998;2022-07-25T09:33:31;5.13;;;4.70;;
15110;SDS011;7656;51.954;7.998;2022-07-25T09:37:32;5.38;;;4.88;;
15110;SDS011;7656;51.954;7.998;2022-07-25T09:41:37;5.32;;;4.82;;
15110;SDS011;7656;51.954;7.998;2022-07-25T09:45:47;4.78;;;4.38;;
15110;SDS011;7656;51.954;7.998;2022-07-25T09:49:50;6.38;;;5.20;;
15110;SDS011;7656;51.954;7.998;2022-07-25T09:53:51;5.00;;;4.60;;
15110;SDS011;7656;51.954;7.998;2022-07-25T09:57:52;5.90;;;5.28;;
15110;SDS011;7656;51.954;7.998;2022-07-25T10:02:05;6.80;;;4.50;;
15110;SDS011;7656;51.954;7.998;2022-07-25T10:06:13;5.85;;;5.00;;
15110;SDS011;7656;51.954;7.998;2022-07-25T10:10:54;5.95;;;4.97;;
15110;SDS011;7656;51.954;7.998;2022-07-25T10:15:02;4.85;;;4.47;;
15110;SDS011;7656;51.954;7.998;2022-07-25T10:19:04;5.65;;;4.63;;
15110;SDS011;7656;51.954;7.998;2022-07-25T10:23:15;5.55;;;5.10;;
15110;SDS011;7656;51.954;7.998;2022-07-25T10:27:21;5.63;;;5.13;;
15110;SDS011;7656;51.954;7.998;2022-07-25T10:31:24;4.95;;;4.55;;
15110;SDS011;7656;51.954;7.998;2022-07-25T10:35:35;6.78;;;6.18;;
15110;SDS011;7656;51.954;7.998;2022-07-25T10:39:37;5.95;;;4.72;;
15110;SDS011;7656;51.954;7.998;2022-07-25T10:43:40;5.47;;;5.00;;
15110;SDS011;7656;51.954;7.998;2022-07-25T10:47:50;6.07;;;5.50;;
15110;SDS011;7656;51.954;7.998;2022-07-25T10:51:59;5.90;;;5.38;;
15110;SDS011;7656;51.954;7.998;2022-07-25T10:56:05;6.07;;;5.07;;
15110;SDS011;7656;51.954;7.998;2022-07-25T11:00:21;5.78;;;5.20;;
15110;SDS011;7656;51.954;7.998;2022-07-25T11:04:22;5.85;;;5.25;;
15110;SDS011;7656;51.954;7.998;2022-07-25T11:08:30;5.50;;;5.00;;
15110;SDS011;7656;51.954;7.998;2022-07-25T11:12:32;5.07;;;4.57;;
15110;SDS011;7656;51.954;7.998;2022-07-25T11:16:34;5.55;;;5.05;;
15110;SDS011;7656;51.954;7.998;2022-07-25T11:20:34;5.80;;;5.25;;
15110;SDS011;7656;51.954;7.998;2022-07-25T11:24:36;6.90;;;5.03;;
15110;SDS011;7656;51.954;7.998;2022-07-25T11:28:43;7.00;;;5.43;;
15110;SDS011;7656;51.954;7.998;2022-07-25T11:32:48;8.25;;;4.80;;
15110;SDS011;7656;51.954;7.998;2022-07-25T11:36:55;6.45;;;4.75;;
15110;SDS011;7656;51.954;7.998;2022-07-25T11:40:58;4.82;;;4.43;;
15110;SDS011;7656;51.954;7.998;2022-07-25T11:45:00;4.95;;;4.55;;
15110;SDS011;7656;51.954;7.998;2022-07-25T11:49:04;11.18;;;5.53;;
15110;SDS011;7656;51.954;7.998;2022-07-25T11:53:06;5.75;;;4.53;;
15110;SDS011;7656;51.954;7.998;2022-07-25T11:57:18;6.40;;;5.35;;
15110;SDS011;7656;51.954;7.998;2022-07-25T12:01:21;5.97;;;5.38;;
15110;SDS011;7656;51.954;7.998;2022-07-25T12:05:30;7.15;;;4.75;;
15110;SDS011;7656;51.954;7.998;2022-07-25T12:09:32;6.57;;;5.97;;
15110;SDS011;7656;51.954;7.998;2022-07-25T12:13:33;6.43;;;5.47;;
15110;SDS011;7656;51.954;7.998;2022-07-25T12:17:35;6.88;;;5.97;;
15110;SDS011;7656;51.954;7.998;2022-07-25T12:21:37;9.65;;;5.40;;
15110;SDS011;7656;51.954;7.998;2022-07-25T12:25:39;5.28;;;4.68;;
15110;SDS011;7656;51.954;7.998;2022-07-25T12:29:42;6.53;;;5.50;;
15110;SDS011;7656;51.954;7.998;2022-07-25T12:33:43;5.50;;;4.97;;
15110;SDS011;7656;51.954;7.998;2022-07-25T12:37:44;7.35;;;6.30;;
15110;SDS011;7656;51.954;7.998;2022-07-25T12:41:45;5.82;;;5.32;;
15110;SDS011;7656;51.954;7.998;2022-07-25T12:45:46;5.53;;;5.03;;
15110;SDS011;7656;51.954;7.998;2022-07-25T12:49:48;7.00;;;6.30;;
15110;SDS011;7656;51.954;7.998;2022-07-25T12:53:49;6.63;;;5.65;;
15110;SDS011;7656;51.954;7.998;2022-07-25T12:57:50;7.65;;;5.68;;
15110;SDS011;7656;51.954;7.998;2022-07-25T13:01:51;6.18;;;5.55;;
15110;SDS011;7656;51.954;7.998;2022-07-25T13:05:52;6.15;;;5.50;;
15110;SDS011;7656;51.954;7.998;2022-07-25T13:09:53;6.32;;;4.97;;
15110;SDS011;7656;51.954;7.998;2022-07-25T13:13:54;6.20;;;5.22;;
15110;SDS011;7656;51.954;7.998;2022-07-25T13:17:55;5.47;;;4.97;;
15110;SDS011;7656;51.954;7.998;2022-07-25T13:21:56;6.13;;;4.70;;
15110;SDS011;7656;51.954;7.998;2022-07-25T13:25:57;5.60;;;4.40;;
15110;SDS011;7656;51.954;7.998;2022-07-25T13:29:59;9.30;;;4.75;;
15110;SDS011;7656;51.954;7.998;2022-07-25T13:34:01;5.93;;;4.60;;
15110;SDS011;7656;51.954;7.998;2022-07-25T13:38:01;6.25;;;4.07;;
15110;SDS011;7656;51.954;7.998;2022-07-25T13:42:03;4.93;;;3.97;;
15110;SDS011;7656;51.954;7.998;2022-07-25T13:46:04;5.82;;;3.95;;
15110;SDS011;7656;51.954;7.998;2022-07-25T13:50:05;5.28;;;3.83;;
15110;SDS011;7656;51.954;7.998;2022-07-25T13:54:07;4.18;;;3.60;;
15110;SDS011;7656;51.954;7.998;2022-07-25T13:58:08;8.45;;;3.47;;
15110;SDS011;7656;51.954;7.998;2022-07-25T14:02:09;4.35;;;2.80;;
15110;SDS011;7656;51.954;7.998;2022-07-25T14:06:10;3.42;;;3.15;;
15110;SDS011;7656;51.954;7.998;2022-07-25T14:10:11;4.82;;;2.83;;
15110;SDS011;7656;51.954;7.998;2022-07-25T14:14:12;6.85;;;2.88;;
15110;SDS011;7656;51.954;7.998;2022-07-25T14:18:13;5.25;;;2.90;;
15110;SDS011;7656;51.954;7.998;2022-07-25T14:22:14;3.10;;;2.90;;
15110;SDS011;7656;51.954;7.998;2022-07-25T14:26:15;2.88;;;2.65;;
15110;SDS011;7656;51.954;7.998;2022-07-25T14:30:16;4.75;;;2.83;;
15110;SDS011;7656;51.954;7.998;2022-07-25T14:34:17;3.80;;;2.75;;
15110;SDS011;7656;51.954;7.998;2022-07-25T14:38:18;4.55;;;2.42;;
15110;SDS011;7656;51.954;7.998;2022-07-25T14:42:19;2.85;;;2.63;;
15110;SDS011;7656;51.954;7.998;2022-07-25T14:46:20;4.30;;;2.35;;
15110;SDS011;7656;51.954;7.998;2022-07-25T14:50:21;2.30;;;2.10;;
15110;SDS011;7656;51.954;7.998;2022-07-25T14:54:23;5.47;;;1.92;;
15110;SDS011;7656;51.954;7.998;2022-07-25T14:58:27;4.25;;;1.90;;
15110;SDS011;7656;51.954;7.998;2022-07-25T15:02:28;4.78;;;2.30;;
15110;SDS011;7656;51.954;7.998;2022-07-25T15:06:30;3.08;;;2.22;;
15110;SDS011;7656;51.954;7.998;2022-07-25T15:10:31;3.47;;;2.13;;
15110;SDS011;7656;51.954;7.998;2022-07-25T15:14:32;2.33;;;1.95;;
15110;SDS011;7656;51.954;7.998;2022-07-25T15:18:35;7.15;;;2.50;;
15110;SDS011;7656;51.954;7.998;2022-07-25T15:22:36;6.45;;;2.58;;
15110;SDS011;7656;51.954;7.998;2022-07-25T15:26:36;3.13;;;1.98;;
15110;SDS011;7656;51.954;7.998;2022-07-25T15:30:37;2.90;;;2.30;;
15110;SDS011;7656;51.954;7.998;2022-07-25T15:34:38;1.92;;;1.80;;
15110;SDS011;7656;51.954;7.998;2022-07-25T15:38:42;6.82;;;2.20;;
15110;SDS011;7656;51.954;7.998;2022-07-25T15:42:44;2.38;;;2.13;;
15110;SDS011;7656;51.954;7.998;2022-07-25T15:46:45;2.92;;;2.72;;
15110;SDS011;7656;51.954;7.998;2022-07-25T15:50:46;6.78;;;4.25;;
15110;SDS011;7656;51.954;7.998;2022-07-25T15:54:50;7.13;;;3.42;;
15110;SDS011;7656;51.954;7.998;2022-07-25T15:58:51;2.95;;;2.33;;
15110;SDS011;7656;51.954;7.998;2022-07-25T16:02:52;5.05;;;2.80;;
15110;SDS011;7656;51.954;7.998;2022-07-25T16:06:54;6.63;;;2.10;;
15110;SDS011;7656;51.954;7.998;2022-07-25T16:10:56;3.90;;;2.70;;
15110;SDS011;7656;51.954;7.998;2022-07-25T16:14:57;4.35;;;2.47;;
15110;SDS011;7656;51.954;7.998;2022-07-25T16:18:58;4.82;;;2.60;;
15110;SDS011;7656;51.954;7.998;2022-07-25T16:22:59;3.38;;;2.83;;
15110;SDS011;7656;51.954;7.998;2022-07-25T16:27:00;3.88;;;3.38;;
15110;SDS011;7656;51.954;7.998;2022-07-25T16:31:01;6.55;;;4.22;;
15110;SDS011;7656;51.954;7.998;2022-07-25T16:35:02;3.67;;;2.78;;
15110;SDS011;7656;51.954;7.998;2022-07-25T16:39:04;2.85;;;2.65;;
15110;SDS011;7656;51.954;7.998;2022-07-25T16:43:04;11.50;;;4.47;;
15110;SDS011;7656;51.954;7.998;2022-07-25T16:47:05;5.25;;;3.90;;
15110;SDS011;7656;51.954;7.998;2022-07-25T16:51:07;4.32;;;3.10;;
15110;SDS011;7656;51.954;7.998;2022-07-25T16:55:08;4.88;;;3.35;;
15110;SDS011;7656;51.954;7.998;2022-07-25T16:59:09;5.05;;;3.00;;
15110;SDS011;7656;51.954;7.998;2022-07-25T17:03:10;3.78;;;3.30;;
15110;SDS011;7656;51.954;7.998;2022-07-25T17:07:11;3.28;;;2.70;;
15110;SDS011;7656;51.954;7.998;2022-07-25T17:11:12;8.80;;;3.47;;
15110;SDS011;7656;51.954;7.998;2022-07-25T17:15:13;4.57;;;2.92;;
15110;SDS011;7656;51.954;7.998;2022-07-25T17:19:14;4.07;;;3.22;;
15110;SDS011;7656;51.954;7.998;2022-07-25T17:23:15;3.35;;;2.70;;
15110;SDS011;7656;51.954;7.998;2022-07-25T17:27:16;3.15;;;2.40;;
15110;SDS011;7656;51.954;7.998;2022-07-25T17:31:17;2.65;;;2.45;;
15110;SDS011;7656;51.954;7.998;2022-07-25T17:35:18;3.33;;;2.30;;
15110;SDS011;7656;51.954;7.998;2022-07-25T17:39:20;4.53;;;2.50;;
15110;SDS011;7656;51.954;7.998;2022-07-25T17:43:21;3.50;;;2.00;;
15110;SDS011;7656;51.954;7.998;2022-07-25T17:47:22;2.45;;;2.17;;
15110;SDS011;7656;51.954;7.998;2022-07-25T17:51:23;3.35;;;2.53;;
15110;SDS011;7656;51.954;7.998;2022-07-25T17:55:25;3.42;;;2.50;;
15110;SDS011;7656;51.954;7.998;2022-07-25T17:59:27;4.28;;;2.20;;
15110;SDS011;7656;51.954;7.998;2022-07-25T18:03:28;3.40;;;2.42;;
15110;SDS011;7656;51.954;7.998;2022-07-25T18:07:29;5.60;;;2.38;;
15110;SDS011;7656;51.954;7.998;2022-07-25T18:11:30;2.47;;;1.98;;
15110;SDS011;7656;51.954;7.998;2022-07-25T18:15:31;3.42;;;2.70;;
15110;SDS011;7656;51.954;7.998;2022-07-25T18:19:32;4.13;;;3.03;;
15110;SDS011;7656;51.954;7.998;2022-07-25T18:23:33;2.80;;;2.60;;
15110;SDS011;7656;51.954;7.998;2022-07-25T18:27:33;3.38;;;3.08;;
15110;SDS011;7656;51.954;7.998;2022-07-25T18:31:35;3.70;;;2.50;;
15110;SDS011;7656;51.954;7.998;2022-07-25T18:35:36;5.95;;;3.20;;
15110;SDS011;7656;51.954;7.998;2022-07-25T18:39:37;3.90;;;2.58;;
15110;SDS011;7656;51.954;7.998;2022-07-25T18:43:38;3.42;;;2.70;;
15110;SDS011;7656;51.954;7.998;2022-07-25T18:47:39;5.32;;;3.15;;
15110;SDS011;7656;51.954;7.998;2022-07-25T18:51:40;9.05;;;3.60;;
15110;SDS011;7656;51.954;7.998;2022-07-25T18:55:40;6.00;;;3.28;;
15110;SDS011;7656;51.954;7.998;2022-07-25T18:59:41;4.45;;;3.10;;
15110;SDS011;7656;51.954;7.998;2022-07-25T19:03:42;3.78;;;2.90;;
15110;SDS011;7656;51.954;7.998;2022-07-25T19:07:43;5.22;;;3.08;;
15110;SDS011;7656;51.954;7.998;2022-07-25T19:11:44;3.60;;;3.30;;
15110;SDS011;7656;51.954;7.998;2022-07-25T19:15:46;4.82;;;3.10;;
15110;SDS011;7656;51.954;7.998;2022-07-25T19:19:48;4.60;;;2.75;;
15110;SDS011;7656;51.954;7.998;2022-07-25T19:23:50;2.85;;;2.45;;
15110;SDS011;7656;51.954;7.998;2022-07-25T19:27:51;4.57;;;2.50;;
15110;SDS011;7656;51.954;7.998;2022-07-25T19:31:53;4.75;;;2.67;;
15110;SDS011;7656;51.954;7.998;2022-07-25T19:35:54;7.30;;;2.20;;
15110;SDS011;7656;51.954;7.998;2022-07-25T19:39:54;1.83;;;1.40;;
15110;SDS011;7656;51.954;7.998;2022-07-25T19:44:14;6.60;;;1.83;;
15110;SDS011;7656;51.954;7.998;2022-07-25T19:48:37;2.90;;;1.70;;
15110;SDS011;7656;51.954;7.998;2022-07-25T19:52:59;1.85;;;1.15;;
15110;SDS011;7656;51.954;7.998;2022-07-25T19:57:21;7.95;;;1.83;;
15110;SDS011;7656;51.954;7.998;2022-07-25T20:01:42;2.97;;;1.40;;
15110;SDS011;7656;51.954;7.998;2022-07-25T20:06:05;5.35;;;1.38;;
15110;SDS011;7656;51.954;7.998;2022-07-25T20:10:27;4.07;;;1.35;;
15110;SDS011;7656;51.954;7.998;2022-07-25T20:14:48;5.50;;;1.40;;
15110;SDS011;7656;51.954;7.998;2022-07-25T20:19:09;4.88;;;1.65;;
15110;SDS011;7656;51.954;7.998;2022-07-25T20:23:31;1.65;;;1.38;;
15110;SDS011;7656;51.954;7.998;2022-07-25T20:27:52;6.47;;;1.60;;
15110;SDS011;7656;51.954;7.998;2022-07-25T20:32:14;4.43;;;1.45;;
15110;SDS011;7656;51.954;7.998;2022-07-25T20:36:35;4.30;;;1.30;;
15110;SDS011;7656;51.954;7.998;2022-07-25T20:40:57;9.35;;;2.38;;
15110;SDS011;7656;51.954;7.998;2022-07-25T20:45:19;3.35;;;1.30;;
15110;SDS011;7656;51.954;7.998;2022-07-25T20:49:41;2.67;;;1.60;;
15110;SDS011;7656;51.954;7.998;2022-07-25T20:54:03;3.72;;;1.35;;
15110;SDS011;7656;51.954;7.998;2022-07-25T20:58:24;3.83;;;1.30;;
15110;SDS011;7656;51.954;7.998;2022-07-25T21:02:45;6.22;;;1.75;;
15110;SDS011;7656;51.954;7.998;2022-07-25T21:07:07;1.98;;;1.35;;
15110;SDS011;7656;51.954;7.998;2022-07-25T21:11:28;4.63;;;1.20;;
15110;SDS011;7656;51.954;7.998;2022-07-25T21:15:49;2.80;;;1.33;;
15110;SDS011;7656;51.954;7.998;2022-07-25T21:20:11;0.90;;;0.90;;
15110;SDS011;7656;51.954;7.998;2022-07-25T21:24:34;5.55;;;1.60;;
15110;SDS011;7656;51.954;7.998;2022-07-25T21:28:55;2.65;;;1.20;;
15110;SDS011;7656;51.954;7.998;2022-07-25T21:33:17;4.80;;;1.27;;
15110;SDS011;7656;51.954;7.998;2022-07-25T21:37:38;2.35;;;1.15;;
15110;SDS011;7656;51.954;7.998;2022-07-25T21:41:59;2.42;;;1.00;;
15110;SDS011;7656;51.954;7.998;2022-07-25T21:46:20;3.28;;;1.40;;
15110;SDS011;7656;51.954;7.998;2022-07-25T21:50:42;3.05;;;1.35;;
15110;SDS011;7656;51.954;7.998;2022-07-25T21:55:05;1.35;;;1.10;;
15110;SDS011;7656;51.954;7.998;2022-07-25T21:59:28;5.70;;;1.50;;
15110;SDS011;7656;51.954;7.998;2022-07-25T22:03:50;1.65;;;1.35;;
15110;SDS011;7656;51.954;7.998;2022-07-25T22:08:12;5.25;;;1.10;;
15110;SDS011;7656;51.954;7.998;2022-07-25T22:12:33;5.95;;;1.42;;
15110;SDS011;7656;51.954;7.998;2022-07-25T22:16:55;4.97;;;1.30;;
15110;SDS011;7656;51.954;7.998;2022-07-25T22:21:16;3.05;;;1.33;;
15110;SDS011;7656;51.954;7.998;2022-07-25T22:25:37;3.53;;;1.27;;
15110;SDS011;7656;51.954;7.998;2022-07-25T22:29:58;5.28;;;1.08;;
15110;SDS011;7656;51.954;7.998;2022-07-25T22:34:19;3.67;;;1.10;;
15110;SDS011;7656;51.954;7.998;2022-07-25T22:38:41;2.10;;;1.10;;
15110;SDS011;7656;51.954;7.998;2022-07-25T22:43:02;2.55;;;1.15;;
15110;SDS011;7656;51.954;7.998;2022-07-25T22:47:23;2.55;;;1.15;;
15110;SDS011;7656;51.954;7.998;2022-07-25T22:51:44;2.58;;;1.10;;
15110;SDS011;7656;51.954;7.998;2022-07-25T22:56:06;2.13;;;1.02;;
15110;SDS011;7656;51.954;7.998;2022-07-25T23:00:27;2.38;;;1.27;;
15110;SDS011;7656;51.954;7.998;2022-07-25T23:04:48;3.15;;;1.20;;
15110;SDS011;7656;51.954;7.998;2022-07-25T23:09:09;1.92;;;1.30;;
15110;SDS011;7656;51.954;7.998;2022-07-25T23:13:33;6.65;;;1.25;;
15110;SDS011;7656;51.954;7.998;2022-07-25T23:17:55;2.63;;;1.10;;
15110;SDS011;7656;51.954;7.998;2022-07-25T23:22:16;4.05;;;1.58;;
15110;SDS011;7656;51.954;7.998;2022-07-25T23:26:38;2.72;;;1.17;;
15110;SDS011;7656;51.954;7.998;2022-07-25T23:31:00;2.35;;;1.15;;
15110;SDS011;7656;51.954;7.998;2022-07-25T23:35:21;2.33;;;1.02;;
15110;SDS011;7656;51.954;7.998;2022-07-25T23:39:42;2.08;;;1.27;;
15110;SDS011;7656;51.954;7.998;2022-07-25T23:44:04;6.63;;;1.52;;
15110;SDS011;7656;51.954;7.998;2022-07-25T23:48:25;2.70;;;1.17;;
15110;SDS011;7656;51.954;7.998;2022-07-25T23:52:46;1.77;;;1.27;;
15110;SDS011;7656;51.954;7.998;2022-07-25T23:57:07;2.55;;;1.15;;
